createdAt,value
2023-04-17T00:02:25.719Z,12.40
2023-04-17T00:04:54.415Z,13.37
2023-04-17T00:07:24.186Z,13.07
2023-04-17T00:09:50.897Z,12.70
2023-04-17T00:12:17.676Z,12.97
2023-04-17T00:14:44.202Z,12.33
2023-04-17T00:17:11.010Z,12.77
2023-04-17T00:19:37.911Z,12.73
2023-04-17T00:22:04.451Z,12.63
2023-04-17T00:24:31.011Z,14.10
2023-04-17T00:26:58.255Z,13.77
2023-04-17T00:29:25.149Z,12.50
2023-04-17T00:31:51.737Z,13.43
2023-04-17T00:34:18.248Z,13.03
2023-04-17T00:36:44.696Z,13.10
2023-04-17T00:39:11.525Z,14.80
2023-04-17T00:41:38.410Z,13.57
2023-04-17T00:44:05.101Z,13.77
2023-04-17T00:46:32.017Z,13.70
2023-04-17T00:48:59.067Z,13.80
2023-04-17T00:51:25.793Z,14.77
2023-04-17T00:53:52.538Z,14.43
2023-04-17T00:56:19.054Z,14.27
2023-04-17T00:58:45.827Z,14.53
2023-04-17T01:01:12.512Z,13.93
2023-04-17T01:03:39.223Z,14.00
2023-04-17T01:06:06.144Z,15.10
2023-04-17T01:08:44.255Z,13.50
2023-04-17T01:11:11.227Z,15.07
2023-04-17T01:13:45.354Z,14.20
2023-04-17T01:16:12.055Z,15.73
2023-04-17T01:18:38.549Z,14.63
2023-04-17T01:21:05.159Z,14.80
2023-04-17T01:23:42.264Z,14.37
2023-04-17T01:26:08.867Z,13.77
2023-04-17T01:28:36.991Z,15.03
2023-04-17T01:31:03.564Z,14.20
2023-04-17T01:33:30.076Z,15.03
2023-04-17T01:35:56.692Z,13.73
2023-04-17T01:38:23.233Z,14.90
2023-04-17T01:40:49.722Z,13.80
2023-04-17T01:43:16.303Z,14.60
2023-04-17T01:45:43.137Z,14.80
2023-04-17T01:48:11.173Z,15.43
2023-04-17T01:50:37.666Z,13.93
2023-04-17T01:53:04.150Z,15.07
2023-04-17T01:55:30.740Z,14.73
2023-04-17T01:57:58.382Z,15.20
2023-04-17T02:00:25.003Z,14.70
2023-04-17T02:02:52.679Z,15.40
2023-04-17T02:05:19.441Z,14.07
2023-04-17T02:07:45.924Z,14.43
2023-04-17T02:10:12.951Z,15.70
2023-04-17T02:12:39.427Z,14.70
2023-04-17T02:15:06.336Z,15.33
2023-04-17T02:17:33.110Z,13.53
2023-04-17T02:19:59.689Z,14.33
2023-04-17T02:22:26.253Z,16.30
2023-04-17T02:24:52.763Z,15.20
2023-04-17T02:27:19.877Z,13.60
2023-04-17T02:29:46.323Z,14.83
2023-04-17T02:32:14.756Z,14.80
2023-04-17T02:34:41.436Z,14.27
2023-04-17T02:37:08.149Z,14.90
2023-04-17T02:39:36.303Z,15.97
2023-04-17T02:42:03.144Z,15.67
2023-04-17T02:44:30.092Z,15.50
2023-04-17T02:46:56.661Z,15.03
2023-04-17T02:49:23.587Z,15.33
2023-04-17T02:51:50.296Z,14.63
2023-04-17T02:54:17.349Z,15.97
2023-04-17T02:56:44.044Z,15.60
2023-04-17T02:59:10.886Z,16.03
2023-04-17T03:01:39.288Z,14.50
2023-04-17T03:04:06.432Z,14.73
2023-04-17T03:06:33.519Z,16.00
2023-04-17T03:09:00.792Z,15.70
2023-04-17T03:11:27.557Z,15.23
2023-04-17T03:13:54.051Z,17.37
2023-04-17T03:16:21.857Z,15.50
2023-04-17T03:18:48.810Z,16.63
2023-04-17T03:21:15.356Z,16.67
2023-04-17T03:23:42.104Z,15.73
2023-04-17T03:26:09.414Z,16.30
2023-04-17T03:28:36.702Z,15.57
2023-04-17T03:31:04.483Z,17.10
2023-04-17T03:33:33.186Z,17.23
2023-04-17T03:35:59.685Z,16.77
2023-04-17T03:38:26.147Z,16.80
2023-04-17T03:40:53.670Z,16.47
2023-04-17T03:43:22.938Z,17.73
2023-04-17T03:45:50.038Z,16.87
2023-04-17T03:48:17.000Z,18.23
2023-04-17T03:50:45.011Z,18.73
2023-04-17T03:53:12.163Z,27.87
2023-04-17T03:55:39.024Z,24.57
2023-04-17T03:58:06.182Z,22.33
2023-04-17T04:00:33.581Z,20.90
2023-04-17T04:03:06.454Z,20.57
2023-04-17T04:05:38.995Z,17.00
2023-04-17T04:08:07.382Z,19.10
2023-04-17T04:10:45.630Z,16.23
2023-04-17T04:13:16.515Z,18.57
2023-04-17T04:15:48.545Z,18.27
2023-04-17T04:18:17.802Z,17.03
2023-04-17T04:20:44.634Z,16.30
2023-04-17T04:23:20.840Z,17.83
2023-04-17T04:25:49.717Z,18.57
2023-04-17T04:28:33.466Z,16.93
2023-04-17T04:31:02.620Z,18.53
2023-04-17T04:33:35.215Z,17.50
2023-04-17T04:36:02.531Z,16.80
2023-04-17T04:38:31.105Z,18.17
2023-04-17T04:41:01.649Z,16.23
2023-04-17T04:43:29.938Z,17.47
2023-04-17T04:45:56.583Z,16.43
2023-04-17T04:48:29.190Z,17.63
2023-04-17T04:50:55.811Z,15.93
2023-04-17T04:53:22.351Z,16.00
2023-04-17T04:55:54.785Z,17.90
2023-04-17T04:58:21.578Z,15.87
2023-04-17T05:00:49.175Z,16.57
2023-04-17T05:03:23.727Z,16.93
2023-04-17T05:05:51.607Z,17.00
2023-04-17T05:08:21.346Z,17.33
2023-04-17T05:10:58.031Z,18.20
2023-04-17T05:13:24.531Z,16.83
2023-04-17T05:15:51.506Z,17.57
2023-04-17T05:18:21.084Z,17.40
2023-04-17T05:20:48.802Z,17.30
2023-04-17T05:23:15.555Z,16.40
2023-04-17T05:25:43.169Z,15.53
2023-04-17T05:28:10.066Z,16.27
2023-04-17T05:30:36.582Z,17.13
2023-04-17T05:33:12.427Z,15.70
2023-04-17T05:35:46.648Z,16.10
2023-04-17T05:38:13.716Z,16.10
2023-04-17T05:40:40.246Z,17.27
2023-04-17T05:43:08.138Z,17.60
2023-04-17T05:45:35.304Z,17.53
2023-04-17T05:48:01.891Z,17.30
2023-04-17T05:50:28.829Z,15.90
2023-04-17T05:52:56.989Z,17.70
2023-04-17T05:55:26.712Z,17.30
2023-04-17T05:57:58.140Z,16.37
2023-04-17T06:00:24.954Z,19.10
2023-04-17T06:02:57.653Z,17.53
2023-04-17T06:05:31.963Z,16.47
2023-04-17T06:07:58.536Z,17.30
2023-04-17T06:10:25.477Z,17.07
2023-04-17T06:12:52.210Z,16.80
2023-04-17T06:15:18.769Z,15.50
2023-04-17T06:17:45.314Z,17.67
2023-04-17T06:20:11.913Z,17.90
2023-04-17T06:22:38.892Z,19.60
2023-04-17T06:25:05.955Z,16.10
2023-04-17T06:27:34.458Z,15.93
2023-04-17T06:30:03.309Z,16.63
2023-04-17T06:32:33.315Z,16.20
2023-04-17T06:35:00.038Z,16.57
2023-04-17T06:37:38.665Z,15.40
2023-04-17T06:40:05.532Z,16.70
2023-04-17T06:42:35.225Z,15.60
2023-04-17T06:45:02.623Z,16.63
2023-04-17T06:47:30.647Z,17.27
2023-04-17T06:49:59.691Z,14.80
2023-04-17T06:52:26.227Z,15.20
2023-04-17T06:54:55.992Z,15.03
2023-04-17T06:57:22.575Z,14.33
2023-04-17T06:59:49.087Z,17.13
2023-04-17T07:02:16.234Z,15.13
2023-04-17T07:04:42.913Z,14.20
2023-04-17T07:07:09.463Z,13.93
2023-04-17T07:09:35.919Z,14.00
2023-04-17T07:12:03.691Z,13.33
2023-04-17T07:14:30.540Z,14.40
2023-04-17T07:16:57.033Z,13.10
2023-04-17T07:19:23.629Z,14.70
2023-04-17T07:21:50.540Z,13.33
2023-04-17T07:24:17.382Z,13.20
2023-04-17T07:26:44.359Z,11.83
2023-04-17T07:29:11.023Z,11.37
2023-04-17T07:31:38.458Z,12.03
2023-04-17T07:34:05.155Z,13.97
2023-04-17T07:36:31.612Z,12.77
2023-04-17T07:38:58.090Z,12.47
2023-04-17T07:41:24.578Z,12.97
2023-04-17T07:43:51.039Z,11.90
2023-04-17T07:46:18.211Z,11.70
2023-04-17T07:48:44.747Z,11.63
2023-04-17T07:51:11.607Z,12.53
2023-04-17T07:53:38.644Z,12.57
2023-04-17T07:56:06.328Z,11.63
2023-04-17T07:58:35.596Z,12.43
2023-04-17T08:01:05.676Z,12.00
2023-04-17T08:03:32.427Z,11.90
2023-04-17T08:05:59.068Z,12.20
2023-04-17T08:08:25.829Z,10.00
2023-04-17T08:10:52.411Z,11.70
2023-04-17T08:13:19.312Z,11.03
2023-04-17T08:15:46.625Z,12.17
2023-04-17T08:18:13.827Z,11.50
2023-04-17T08:20:40.385Z,11.17
2023-04-17T08:23:07.202Z,11.40
2023-04-17T08:25:33.771Z,11.90
2023-04-17T08:28:00.334Z,11.20
2023-04-17T08:30:26.841Z,10.90
2023-04-17T08:32:55.543Z,11.30
2023-04-17T08:35:22.432Z,12.40
2023-04-17T08:37:49.200Z,10.63
2023-04-17T08:40:17.000Z,12.43
2023-04-17T08:42:43.545Z,10.77
2023-04-17T08:45:11.492Z,10.83
2023-04-17T08:47:42.038Z,11.87
2023-04-17T08:50:16.487Z,10.63
2023-04-17T08:52:50.136Z,10.37
2023-04-17T08:55:17.605Z,9.77
2023-04-17T08:57:57.044Z,8.50
2023-04-17T09:00:24.404Z,9.00
2023-04-17T09:02:51.660Z,9.50
2023-04-17T09:05:19.210Z,10.10
2023-04-17T09:07:46.262Z,9.93
2023-04-17T09:10:13.179Z,10.30
2023-04-17T09:12:41.929Z,10.20
2023-04-17T09:15:15.925Z,9.07
2023-04-17T09:17:42.500Z,9.77
2023-04-17T09:20:11.981Z,10.43
2023-04-17T09:22:40.264Z,9.63
2023-04-17T09:25:19.874Z,9.80
2023-04-17T09:27:46.800Z,10.17
2023-04-17T09:30:13.585Z,9.30
2023-04-17T09:32:40.663Z,10.47
2023-04-17T09:35:07.478Z,8.63
2023-04-17T09:37:48.641Z,9.10
2023-04-17T09:40:15.415Z,11.07
2023-04-17T09:42:55.595Z,9.57
2023-04-17T09:45:22.550Z,9.90
2023-04-17T09:47:50.103Z,9.20
2023-04-17T09:50:18.376Z,8.13
2023-04-17T09:52:46.947Z,9.43
2023-04-17T09:55:16.168Z,9.10
2023-04-17T09:57:44.566Z,8.90
2023-04-17T10:00:14.743Z,9.63
2023-04-17T10:02:42.274Z,9.80
2023-04-17T10:05:11.058Z,8.70
2023-04-17T10:07:37.923Z,8.70
2023-04-17T10:10:09.202Z,8.97
2023-04-17T10:12:37.133Z,9.53
2023-04-17T10:15:04.756Z,9.13
2023-04-17T10:17:32.633Z,9.50
2023-04-17T10:20:20.360Z,9.57
2023-04-17T10:22:56.772Z,10.07
2023-04-17T10:25:24.134Z,8.77
2023-04-17T10:27:51.839Z,9.30
2023-04-17T10:33:09.935Z,9.70
2023-04-17T10:35:36.813Z,8.83
2023-04-17T10:38:04.723Z,8.20
2023-04-17T10:40:32.146Z,9.30
2023-04-17T10:43:17.086Z,8.50
2023-04-17T10:45:53.147Z,9.17
2023-04-17T10:48:26.614Z,8.10
2023-04-17T10:50:53.339Z,9.33
2023-04-17T10:53:40.340Z,10.00
2023-04-17T10:56:07.168Z,9.50
2023-04-17T10:58:37.148Z,9.20
2023-04-17T11:01:09.067Z,9.00
2023-04-17T11:03:37.362Z,8.40
2023-04-17T11:06:04.483Z,8.23
2023-04-17T11:08:30.962Z,7.97
2023-04-17T11:10:57.681Z,8.57
2023-04-17T11:13:24.413Z,9.67
2023-04-17T11:15:52.186Z,8.07
2023-04-17T11:18:20.619Z,8.57
2023-04-17T11:20:47.157Z,7.90
2023-04-17T11:23:13.693Z,8.27
2023-04-17T11:25:40.146Z,8.10
2023-04-17T11:28:06.858Z,7.50
2023-04-17T11:30:34.829Z,6.90
2023-04-17T11:33:02.574Z,7.80
2023-04-17T11:35:30.393Z,8.40
2023-04-17T11:38:06.819Z,9.00
2023-04-17T11:40:33.470Z,8.17
2023-04-17T11:43:07.972Z,8.13
2023-04-17T11:45:35.377Z,6.17
2023-04-17T11:48:02.543Z,7.50
2023-04-17T11:50:30.708Z,8.93
2023-04-17T11:53:00.523Z,8.60
2023-04-17T11:55:30.428Z,9.17
2023-04-17T11:57:58.342Z,8.93
2023-04-17T12:00:29.157Z,8.73
2023-04-17T12:02:56.874Z,7.87
2023-04-17T12:05:23.932Z,8.23
2023-04-17T12:08:04.281Z,8.57
2023-04-17T12:10:36.967Z,8.67
2023-04-17T12:13:03.536Z,7.30
2023-04-17T12:15:29.982Z,7.10
2023-04-17T12:17:56.531Z,8.30
2023-04-17T12:20:24.775Z,5.97
2023-04-17T12:22:53.064Z,7.60
2023-04-17T12:25:19.577Z,6.70
2023-04-17T12:27:48.794Z,5.87
2023-04-17T12:30:16.436Z,6.13
2023-04-17T12:32:48.514Z,5.80
2023-04-17T12:35:15.933Z,6.60
2023-04-17T12:37:48.478Z,5.47
2023-04-17T12:40:16.826Z,5.73
2023-04-17T12:42:49.219Z,5.63
2023-04-17T12:45:16.942Z,5.17
2023-04-17T12:47:43.725Z,4.97
2023-04-17T12:50:11.801Z,5.20
2023-04-17T12:52:39.049Z,5.63
2023-04-17T12:55:07.490Z,6.37
2023-04-17T12:57:35.421Z,5.50
2023-04-17T13:00:02.098Z,6.00
2023-04-17T13:02:28.811Z,6.30
2023-04-17T13:04:56.309Z,6.57
2023-04-17T13:07:22.876Z,6.83
2023-04-17T13:09:49.411Z,6.60
2023-04-17T13:12:16.482Z,6.03
2023-04-17T13:14:43.104Z,6.17
2023-04-17T13:17:09.565Z,6.27
2023-04-17T13:19:36.180Z,6.97
2023-04-17T13:22:02.713Z,6.80
2023-04-17T13:24:29.222Z,7.67
2023-04-17T13:26:58.111Z,7.03
2023-04-17T13:29:25.543Z,6.83
2023-04-17T13:31:52.007Z,6.47
2023-04-17T13:34:18.613Z,6.70
2023-04-17T13:36:45.735Z,6.50
2023-04-17T13:39:12.525Z,7.13
2023-04-17T13:41:39.383Z,6.20
2023-04-17T13:44:06.013Z,6.57
2023-04-17T13:46:33.107Z,6.47
2023-04-17T13:49:00.309Z,6.97
2023-04-17T13:51:27.360Z,5.70
2023-04-17T13:53:53.888Z,6.13
2023-04-17T13:56:23.332Z,6.00
2023-04-17T13:58:50.414Z,6.43
2023-04-17T14:01:17.380Z,4.53
2023-04-17T14:03:45.968Z,5.93
2023-04-17T14:06:12.984Z,5.70
2023-04-17T14:08:40.636Z,5.20
2023-04-17T14:11:08.129Z,5.57
2023-04-17T14:13:34.647Z,5.97
2023-04-17T14:16:01.354Z,5.40
2023-04-17T14:18:28.498Z,5.40
2023-04-17T14:20:55.420Z,4.53
2023-04-17T14:23:21.878Z,6.07
2023-04-17T14:25:48.707Z,5.97
2023-04-17T14:28:15.279Z,4.87
2023-04-17T14:30:41.708Z,5.70
2023-04-17T14:33:08.120Z,5.90
2023-04-17T14:35:34.591Z,5.87
2023-04-17T14:38:04.721Z,4.70
2023-04-17T14:40:31.217Z,4.20
2023-04-17T14:42:57.667Z,5.23
2023-04-17T14:45:24.179Z,5.30
2023-04-17T14:47:50.803Z,5.60
2023-04-17T14:50:17.586Z,3.33
2023-04-17T14:52:44.024Z,5.17
2023-04-17T14:55:11.472Z,5.53
2023-04-17T14:57:37.932Z,4.97
2023-04-17T15:00:04.719Z,4.93
2023-04-17T15:02:38.084Z,4.70
2023-04-17T15:05:05.373Z,4.27
2023-04-17T15:07:31.940Z,4.80
2023-04-17T15:09:58.549Z,4.97
2023-04-17T15:12:25.136Z,4.77
2023-04-17T15:14:52.276Z,5.40
2023-04-17T15:17:18.885Z,4.67
2023-04-17T15:19:45.445Z,4.77
2023-04-17T15:22:11.904Z,5.07
2023-04-17T15:24:38.592Z,4.60
2023-04-17T15:27:05.063Z,4.20
2023-04-17T15:29:31.626Z,3.87
2023-04-17T15:31:59.063Z,4.37
2023-04-17T15:34:25.654Z,4.33
2023-04-17T15:36:52.123Z,3.90
2023-04-17T15:39:18.572Z,4.60
2023-04-17T15:41:45.387Z,4.10
2023-04-17T15:44:11.889Z,5.13
2023-04-17T15:46:38.429Z,4.03
2023-04-17T15:49:09.124Z,4.20
2023-04-17T15:51:49.280Z,4.80
2023-04-17T15:54:16.331Z,4.80
2023-04-17T15:56:43.525Z,4.17
2023-04-17T15:59:09.973Z,4.23
2023-04-17T16:01:36.496Z,4.20
2023-04-17T16:04:03.602Z,4.50
2023-04-17T16:06:30.221Z,4.03
2023-04-17T16:08:56.775Z,4.23
2023-04-17T16:11:24.056Z,9.60
2023-04-17T16:13:50.552Z,4.40
2023-04-17T16:16:17.150Z,4.33
2023-04-17T16:18:45.946Z,6.10
2023-04-17T16:21:12.961Z,6.00
2023-04-17T16:23:39.625Z,4.07
2023-04-17T16:26:06.476Z,4.30
2023-04-17T16:28:33.138Z,6.30
2023-04-17T16:30:59.664Z,5.00
2023-04-17T16:33:26.214Z,13.63
2023-04-17T16:35:52.868Z,4.50
2023-04-17T16:38:19.370Z,4.03
2023-04-17T16:40:45.868Z,4.03
2023-04-17T16:43:12.338Z,7.00
2023-04-17T16:45:38.900Z,5.40
2023-04-17T16:48:05.691Z,4.20
2023-04-17T16:50:32.254Z,6.03
2023-04-17T16:52:58.723Z,4.40
2023-04-17T16:55:26.655Z,6.50
2023-04-17T16:57:53.210Z,9.60
2023-04-17T17:00:19.833Z,5.50
2023-04-17T17:02:46.566Z,5.60
2023-04-17T17:05:15.312Z,6.67
2023-04-17T17:07:41.816Z,6.50
2023-04-17T17:10:08.963Z,8.40
2023-04-17T17:12:35.587Z,7.53
2023-04-17T17:15:03.856Z,7.57
2023-04-17T17:17:30.896Z,8.53
2023-04-17T17:19:57.366Z,8.53
2023-04-17T17:22:23.871Z,8.33
2023-04-17T17:24:50.335Z,6.10
2023-04-17T17:27:16.807Z,6.63
2023-04-17T17:29:43.263Z,7.90
2023-04-17T17:32:11.660Z,9.60
2023-04-17T17:34:38.243Z,7.37
2023-04-17T17:37:04.794Z,9.17
2023-04-17T17:39:31.264Z,9.10
2023-04-17T17:41:57.807Z,7.23
2023-04-17T17:44:24.666Z,9.77
2023-04-17T17:46:51.176Z,9.93
2023-04-17T17:49:17.681Z,8.50
2023-04-17T17:51:44.420Z,9.17
2023-04-17T17:54:11.782Z,9.50
2023-04-17T17:56:38.474Z,8.60
2023-04-17T17:59:04.908Z,9.50
2023-04-17T18:01:31.393Z,7.40
2023-04-17T18:03:58.241Z,8.70
2023-04-17T18:06:25.906Z,6.40
2023-04-17T18:08:52.911Z,6.17
2023-04-17T18:11:19.422Z,5.87
2023-04-17T18:13:45.879Z,5.87
2023-04-17T18:16:12.444Z,5.67
2023-04-17T18:18:39.102Z,5.67
2023-04-17T18:21:09.204Z,5.60
2023-04-17T18:23:35.670Z,4.67
2023-04-17T18:26:02.955Z,4.80
2023-04-17T18:28:29.661Z,4.60
2023-04-17T18:30:56.201Z,4.40
2023-04-17T18:33:22.729Z,4.67
2023-04-17T18:35:49.309Z,4.97
2023-04-17T18:38:16.657Z,4.80
2023-04-17T18:40:43.349Z,4.53
2023-04-17T18:43:10.074Z,5.23
2023-04-17T18:45:36.898Z,5.00
2023-04-17T18:48:03.500Z,4.90
2023-04-17T18:50:30.899Z,4.90
2023-04-17T18:52:57.507Z,6.00
2023-04-17T18:55:24.094Z,4.30
2023-04-17T18:57:50.820Z,5.00
2023-04-17T19:00:17.526Z,4.90
2023-04-17T19:02:44.074Z,4.70
2023-04-17T19:05:10.696Z,4.30
2023-04-17T19:07:37.668Z,4.83
2023-04-17T19:10:04.459Z,4.70
2023-04-17T19:12:31.928Z,5.07
2023-04-17T19:14:58.414Z,4.20
2023-04-17T19:17:25.507Z,4.50
2023-04-17T19:19:52.046Z,4.10
2023-04-17T19:22:18.592Z,3.77
2023-04-17T19:24:49.498Z,4.30
2023-04-17T19:27:16.870Z,4.00
2023-04-17T19:29:43.337Z,4.17
2023-04-17T19:32:10.718Z,3.33
2023-04-17T19:34:37.350Z,3.20
2023-04-17T19:37:03.951Z,3.90
2023-04-17T19:39:31.423Z,3.60
2023-04-17T19:41:58.029Z,3.93
2023-04-17T19:44:27.327Z,3.73
2023-04-17T19:46:54.889Z,3.80
2023-04-17T19:49:21.326Z,3.57
2023-04-17T19:51:48.109Z,3.30
2023-04-17T19:54:15.777Z,2.90
2023-04-17T19:56:42.544Z,2.80
2023-04-17T19:59:12.526Z,3.00
2023-04-17T20:01:40.472Z,2.90
2023-04-17T20:04:08.792Z,2.90
2023-04-17T20:06:35.344Z,2.83
2023-04-17T20:09:03.353Z,2.30
2023-04-17T20:11:30.068Z,2.50
2023-04-17T20:13:56.546Z,2.90
2023-04-17T20:16:24.034Z,2.53
2023-04-17T20:18:51.791Z,2.23
2023-04-17T20:21:18.655Z,3.00
2023-04-17T20:23:45.653Z,2.70
2023-04-17T20:26:12.111Z,2.90
2023-04-17T20:28:39.038Z,2.73
2023-04-17T20:31:05.622Z,2.30
2023-04-17T20:33:32.224Z,2.50
2023-04-17T20:35:58.808Z,2.17
2023-04-17T20:38:25.700Z,2.77
2023-04-17T20:40:52.267Z,2.43
2023-04-17T20:43:18.935Z,2.77
2023-04-17T20:45:45.660Z,2.27
2023-04-17T20:48:12.374Z,2.60
2023-04-17T20:50:38.871Z,3.20
2023-04-17T20:53:05.548Z,3.07
2023-04-17T20:55:32.030Z,2.90
2023-04-17T20:57:58.627Z,3.20
2023-04-17T21:00:25.129Z,2.60
2023-04-17T21:02:51.661Z,2.73
2023-04-17T21:05:19.213Z,3.10
2023-04-17T21:07:45.717Z,2.43
2023-04-17T21:10:12.174Z,3.10
2023-04-17T21:12:38.640Z,3.00
2023-04-17T21:15:05.348Z,2.63
2023-04-17T21:17:31.946Z,2.90
2023-04-17T21:19:58.469Z,2.70
2023-04-17T21:22:25.078Z,3.00
2023-04-17T21:24:51.638Z,3.17
2023-04-17T21:27:18.600Z,3.30
2023-04-17T21:29:45.533Z,3.13
2023-04-17T21:32:11.968Z,3.40
2023-04-17T21:34:38.627Z,2.70
2023-04-17T21:37:05.199Z,3.27
2023-04-17T21:39:33.299Z,3.63
2023-04-17T21:42:00.202Z,2.97
2023-04-17T21:44:26.713Z,2.60
2023-04-17T21:46:53.247Z,3.00
2023-04-17T21:49:20.459Z,3.10
2023-04-17T21:51:46.934Z,3.30
2023-04-17T21:54:13.631Z,2.83
2023-04-17T21:56:40.324Z,3.00
2023-04-17T21:59:06.827Z,2.50
2023-04-17T22:01:33.445Z,2.70
2023-04-17T22:04:00.016Z,3.00
2023-04-17T22:06:26.961Z,3.83
2023-04-17T22:08:53.472Z,3.10
2023-04-17T22:11:19.965Z,2.47
2023-04-17T22:13:46.961Z,3.30
2023-04-17T22:16:13.599Z,2.80
2023-04-17T22:18:40.178Z,3.17
2023-04-17T22:21:06.801Z,2.70
2023-04-17T22:23:33.291Z,2.90
2023-04-17T22:25:59.816Z,2.93
2023-04-17T22:28:28.589Z,3.23
2023-04-17T22:30:55.087Z,3.43
2023-04-17T22:33:22.016Z,3.33
2023-04-17T22:35:49.029Z,3.20
2023-04-17T22:38:16.009Z,3.70
2023-04-17T22:40:42.615Z,3.30
2023-04-17T22:43:09.198Z,3.23
2023-04-17T22:45:35.790Z,3.00
2023-04-17T22:48:02.518Z,3.70
2023-04-17T22:50:30.507Z,3.17
2023-04-17T22:52:57.037Z,3.03
2023-04-17T22:55:23.560Z,3.20
2023-04-17T22:57:50.006Z,3.00
2023-04-17T23:00:17.172Z,3.30
2023-04-17T23:02:43.702Z,3.43
2023-04-17T23:05:10.631Z,2.60
2023-04-17T23:07:37.213Z,3.70
2023-04-17T23:10:04.273Z,3.20
2023-04-17T23:12:31.324Z,3.20
2023-04-17T23:14:57.908Z,3.83
2023-04-17T23:17:24.432Z,3.70
2023-04-17T23:19:51.187Z,3.97
2023-04-17T23:22:17.714Z,3.30
2023-04-17T23:24:44.245Z,3.80
2023-04-17T23:27:10.998Z,3.60
2023-04-17T23:29:37.459Z,4.30
2023-04-17T23:32:04.512Z,4.10
2023-04-17T23:34:30.979Z,4.00
2023-04-17T23:36:57.486Z,4.00
2023-04-17T23:39:24.114Z,3.93
2023-04-17T23:41:50.840Z,3.60
2023-04-17T23:44:17.647Z,3.73
2023-04-17T23:46:44.283Z,4.00
2023-04-17T23:49:11.249Z,3.77
2023-04-17T23:51:37.705Z,4.07
2023-04-17T23:54:04.574Z,4.03
2023-04-17T23:56:31.289Z,4.47
2023-04-17T23:58:58.041Z,3.77
